Terminal Aerodrome Forecast
Issued by NWS

Home | Current Version | Previous Version | Text Only | Print | Product List | Glossary On
Versions: 1 2 3 4 5 6 7 8 9 10 11 12 13 14 15
000
FTUS46 KLOX 230500
TAFSBA
TAF
KSBA 230525Z 2306/2406 VRB03KT P6SM SKC
     FM231600 17006KT P6SM SKC
     FM232000 24007KT P6SM SKC
     FM240200 VRB03KT P6SM SKC=

USA.gov is the U.S. government's official web portal to all federal, state and local government web resources and services.